createdAt,value
2023-04-21T00:01:31.477Z,19.10
2023-04-21T00:04:03.230Z,19.35
2023-04-21T00:06:34.685Z,22.95
2023-04-21T00:09:06.979Z,25.63
2023-04-21T00:11:38.985Z,24.40
2023-04-21T00:14:10.498Z,23.63
2023-04-21T00:16:42.050Z,17.33
2023-04-21T00:19:15.268Z,27.77
2023-04-21T00:21:46.760Z,27.83
2023-04-21T00:24:17.964Z,24.55
2023-04-21T00:26:49.062Z,25.38
2023-04-21T00:29:20.795Z,24.75
2023-04-21T00:31:52.102Z,25.88
2023-04-21T00:34:23.288Z,19.98
2023-04-21T00:36:56.144Z,15.95
2023-04-21T00:39:27.645Z,23.55
2023-04-21T00:41:58.950Z,25.45
2023-04-21T00:44:30.168Z,23.60
2023-04-21T00:47:02.807Z,11.70
2023-04-21T00:49:34.614Z,30.00
2023-04-21T00:52:09.774Z,29.30
2023-04-21T00:54:41.557Z,29.02
2023-04-21T00:57:14.225Z,28.63
2023-04-21T00:59:46.688Z,27.65
2023-04-21T01:02:19.448Z,27.02
2023-04-21T01:07:22.691Z,22.27
2023-04-21T01:09:53.924Z,23.23
2023-04-21T01:12:25.414Z,23.20
2023-04-21T01:14:56.757Z,27.20
2023-04-21T01:17:28.734Z,26.17
2023-04-21T01:20:04.067Z,24.92
2023-04-21T01:22:41.161Z,27.73
2023-04-21T01:25:12.794Z,25.33
2023-04-21T01:27:48.046Z,24.75
2023-04-21T01:30:19.308Z,22.35
2023-04-21T01:32:50.580Z,21.70
2023-04-21T01:35:22.045Z,21.25
2023-04-21T01:38:13.004Z,19.77
2023-04-21T01:40:44.625Z,17.92
2023-04-21T01:43:17.814Z,16.80
2023-04-21T01:45:50.168Z,20.52
2023-04-21T01:48:21.890Z,19.55
2023-04-21T01:50:55.832Z,18.30
2023-04-21T01:53:28.789Z,17.85
2023-04-21T01:56:00.356Z,17.20
2023-04-21T01:58:33.564Z,17.70
2023-04-21T02:01:08.036Z,17.50
2023-04-21T02:03:39.981Z,18.23
2023-04-21T02:06:12.282Z,16.33
2023-04-21T02:08:44.334Z,16.90
2023-04-21T02:11:33.763Z,16.25
2023-04-21T02:14:05.447Z,12.32
2023-04-21T02:16:36.787Z,17.23
2023-04-21T02:19:07.960Z,17.42
2023-04-21T02:21:39.468Z,16.95
2023-04-21T02:24:11.055Z,16.13
2023-04-21T02:26:42.592Z,15.75
2023-04-21T02:29:13.918Z,15.93
2023-04-21T02:31:57.889Z,15.40
2023-04-21T02:34:36.219Z,13.45
2023-04-21T02:37:08.666Z,16.88
2023-04-21T02:39:40.153Z,15.27
2023-04-21T02:42:11.540Z,15.70
2023-04-21T02:45:02.394Z,16.13
2023-04-21T02:47:33.600Z,15.05
2023-04-21T02:50:06.071Z,16.83
2023-04-21T02:52:40.695Z,16.35
2023-04-21T02:55:32.032Z,16.20
2023-04-21T02:58:03.266Z,16.63
2023-04-21T03:00:55.148Z,16.50
2023-04-21T03:03:26.697Z,16.15
2023-04-21T03:06:02.276Z,16.88
2023-04-21T03:08:34.067Z,16.60
2023-04-21T03:11:05.294Z,16.23
2023-04-21T03:13:37.011Z,18.02
2023-04-21T03:16:08.614Z,17.30
2023-04-21T03:18:40.152Z,17.00
2023-04-21T03:21:12.488Z,16.58
2023-04-21T03:23:44.817Z,17.00
2023-04-21T03:26:16.829Z,17.00
2023-04-21T03:28:49.492Z,16.85
2023-04-21T03:31:25.578Z,19.83
2023-04-21T03:33:56.930Z,19.65
2023-04-21T03:36:28.621Z,18.77
2023-04-21T03:39:19.835Z,17.90
2023-04-21T03:41:53.634Z,21.43
2023-04-21T03:44:27.209Z,23.73
2023-04-21T03:46:59.337Z,21.58
2023-04-21T03:52:17.396Z,18.73
2023-04-21T03:54:51.817Z,23.17
2023-04-21T03:57:24.372Z,22.55
2023-04-21T03:59:56.053Z,24.30
2023-04-21T04:02:27.875Z,23.30
2023-04-21T04:05:01.084Z,26.02
2023-04-21T04:07:33.921Z,26.98
2023-04-21T04:10:12.523Z,27.60
2023-04-21T04:13:05.297Z,29.33
2023-04-21T04:18:21.111Z,28.77
2023-04-21T04:20:53.519Z,39.05
2023-04-21T04:23:35.404Z,29.00
2023-04-21T04:26:13.348Z,28.40
2023-04-21T04:28:45.084Z,30.45
2023-04-21T04:31:16.995Z,29.55
2023-04-21T04:33:48.356Z,32.25
2023-04-21T04:36:20.426Z,29.23
2023-04-21T04:38:52.159Z,30.17
2023-04-21T04:41:24.231Z,30.80
2023-04-21T04:43:55.481Z,31.38
2023-04-21T04:46:29.156Z,31.75
2023-04-21T04:49:01.114Z,30.63
2023-04-21T04:51:34.175Z,33.05
2023-04-21T04:54:26.239Z,30.45
2023-04-21T04:56:59.306Z,31.83
2023-04-21T04:59:32.112Z,30.77
2023-04-21T05:02:03.405Z,30.50
2023-04-21T05:04:37.288Z,33.13
2023-04-21T05:07:15.692Z,32.95
2023-04-21T05:09:47.911Z,33.42
2023-04-21T05:12:22.568Z,32.22
2023-04-21T05:15:15.198Z,33.22
2023-04-21T05:18:10.745Z,32.28
2023-04-21T05:20:49.424Z,32.03
2023-04-21T05:23:42.730Z,31.67
2023-04-21T05:26:13.966Z,31.15
2023-04-21T05:28:47.297Z,31.83
2023-04-21T05:31:19.379Z,27.25
2023-04-21T05:34:11.797Z,31.10
2023-04-21T05:36:46.169Z,31.15
2023-04-21T05:39:19.814Z,31.42
2023-04-21T05:41:51.524Z,29.63
2023-04-21T05:44:26.440Z,30.45
2023-04-21T05:46:57.851Z,30.13
2023-04-21T05:49:29.675Z,28.95
2023-04-21T05:52:24.317Z,29.45
2023-04-21T05:54:57.057Z,29.52
2023-04-21T05:57:28.545Z,29.35
2023-04-21T06:00:02.187Z,31.27
2023-04-21T06:02:39.864Z,29.13
2023-04-21T06:05:23.363Z,28.63
2023-04-21T06:07:55.015Z,31.02
2023-04-21T06:10:26.597Z,29.85
2023-04-21T06:13:21.650Z,30.42
2023-04-21T06:16:02.466Z,30.15
2023-04-21T06:18:54.754Z,30.58
2023-04-21T06:21:26.026Z,27.65
2023-04-21T06:23:58.082Z,29.02
2023-04-21T06:26:51.935Z,26.33
2023-04-21T06:29:24.932Z,27.48
2023-04-21T06:32:18.258Z,31.23
2023-04-21T06:34:50.053Z,31.45
2023-04-21T06:37:22.421Z,30.85
2023-04-21T06:40:14.505Z,30.13
2023-04-21T06:42:47.067Z,29.15
2023-04-21T06:45:18.469Z,30.15
2023-04-21T06:47:50.869Z,26.70
2023-04-21T06:50:22.276Z,31.13
2023-04-21T06:52:53.635Z,29.77
2023-04-21T06:55:27.828Z,25.35
2023-04-21T06:57:59.305Z,27.55
2023-04-21T07:00:30.848Z,33.08
2023-04-21T07:03:02.275Z,31.27
2023-04-21T07:05:39.401Z,32.03
2023-04-21T07:08:10.913Z,30.65
2023-04-21T07:10:45.056Z,31.75
2023-04-21T07:13:36.607Z,34.15
2023-04-21T07:16:32.458Z,38.45
2023-04-21T07:19:04.380Z,38.55
2023-04-21T07:21:55.678Z,38.22
2023-04-21T07:24:27.222Z,36.42
2023-04-21T07:27:02.907Z,33.40
2023-04-21T07:29:34.400Z,35.90
2023-04-21T07:32:05.701Z,36.20
2023-04-21T07:34:39.383Z,35.70
2023-04-21T07:37:30.831Z,43.60
2023-04-21T07:40:02.528Z,36.78
2023-04-21T07:42:35.530Z,37.13
2023-04-21T07:45:08.057Z,33.67
2023-04-21T07:47:39.731Z,36.33
2023-04-21T07:50:12.320Z,35.17
2023-04-21T07:52:45.818Z,31.38
2023-04-21T07:55:17.484Z,34.38
2023-04-21T07:57:51.615Z,32.85
2023-04-21T08:00:23.372Z,32.70
2023-04-21T08:02:56.138Z,33.50
2023-04-21T08:05:31.329Z,30.55
2023-04-21T08:08:03.666Z,32.30
2023-04-21T08:10:55.493Z,32.15
2023-04-21T08:13:29.959Z,23.23
2023-04-21T08:16:02.853Z,32.95
2023-04-21T08:18:34.437Z,32.15
2023-04-21T08:21:26.097Z,28.83
2023-04-21T08:23:59.222Z,31.25
2023-04-21T08:26:31.714Z,31.90
2023-04-21T08:29:23.383Z,27.42
2023-04-21T08:31:54.861Z,32.22
2023-04-21T08:34:48.712Z,29.88
2023-04-21T08:37:22.165Z,30.17
2023-04-21T08:39:55.999Z,31.20
2023-04-21T08:42:27.535Z,32.75
2023-04-21T08:45:00.475Z,30.25
2023-04-21T08:47:53.944Z,32.33
2023-04-21T08:50:29.380Z,32.65
2023-04-21T08:53:02.174Z,23.75
2023-04-21T08:55:37.791Z,32.00
2023-04-21T08:58:10.996Z,32.38
2023-04-21T09:00:43.776Z,33.10
2023-04-21T09:03:25.127Z,33.38
2023-04-21T09:06:07.308Z,33.25
2023-04-21T09:09:00.608Z,30.05
2023-04-21T09:11:36.206Z,27.77
2023-04-21T09:14:08.849Z,29.17
2023-04-21T09:16:40.782Z,31.90
2023-04-21T09:19:20.050Z,32.40
2023-04-21T09:21:51.730Z,32.65
2023-04-21T09:24:26.726Z,33.22
2023-04-21T09:27:35.797Z,30.47
2023-04-21T09:30:31.280Z,24.02
2023-04-21T09:33:13.442Z,30.13
2023-04-21T09:35:54.980Z,30.33
2023-04-21T09:38:26.727Z,32.92
2023-04-21T09:41:01.734Z,32.95
2023-04-21T09:43:33.145Z,31.80
2023-04-21T09:46:14.077Z,32.67
2023-04-21T09:48:47.593Z,28.88
2023-04-21T09:54:02.187Z,23.90
2023-04-21T09:56:39.089Z,29.80
2023-04-21T09:59:12.922Z,32.92
2023-04-21T10:01:50.666Z,33.67
2023-04-21T10:04:25.231Z,32.17
2023-04-21T10:06:58.611Z,32.65
2023-04-21T10:09:37.557Z,33.53
2023-04-21T10:12:10.185Z,33.58
2023-04-21T10:14:42.685Z,31.98
2023-04-21T10:17:34.302Z,32.92
2023-04-21T10:20:12.223Z,33.38
2023-04-21T10:22:47.063Z,33.75
2023-04-21T10:25:21.393Z,34.90
2023-04-21T10:28:12.826Z,34.35
2023-04-21T10:30:48.597Z,32.47
2023-04-21T10:33:20.828Z,33.72
2023-04-21T10:36:09.896Z,34.42
2023-04-21T10:38:46.458Z,34.72
2023-04-21T10:41:31.283Z,37.92
2023-04-21T10:44:26.078Z,23.08
2023-04-21T10:46:58.067Z,24.85
2023-04-21T10:49:34.388Z,36.15
2023-04-21T10:52:07.987Z,35.42
2023-04-21T10:54:48.666Z,32.15
2023-04-21T10:57:23.802Z,41.17
2023-04-21T10:59:56.934Z,36.67
2023-04-21T11:02:33.186Z,24.55
2023-04-21T11:05:15.912Z,36.97
2023-04-21T11:08:16.122Z,38.38
2023-04-21T11:10:53.358Z,40.35
2023-04-21T11:13:46.972Z,35.97
2023-04-21T11:16:43.245Z,36.13
2023-04-21T11:19:37.671Z,33.92
2023-04-21T11:22:28.931Z,39.08
2023-04-21T11:25:01.577Z,34.88
2023-04-21T11:27:34.160Z,41.45
2023-04-21T11:30:10.634Z,37.72
2023-04-21T11:33:07.314Z,35.92
2023-04-21T11:35:44.636Z,36.58
2023-04-21T11:38:22.592Z,39.40
2023-04-21T11:41:14.345Z,39.03
2023-04-21T11:43:50.567Z,35.50
2023-04-21T11:46:29.180Z,42.63
2023-04-21T11:49:07.226Z,32.17
2023-04-21T11:51:45.633Z,30.15
2023-04-21T11:54:38.314Z,37.53
2023-04-21T11:57:11.378Z,37.07
2023-04-21T11:59:45.172Z,39.80
2023-04-21T12:02:49.585Z,38.00
2023-04-21T12:05:26.377Z,37.40
2023-04-21T12:07:59.087Z,26.98
2023-04-21T12:10:32.278Z,36.00
2023-04-21T12:13:05.039Z,41.08
2023-04-21T12:15:57.604Z,29.17
2023-04-21T12:18:36.656Z,38.20
2023-04-21T12:21:12.094Z,36.25
2023-04-21T12:24:04.611Z,35.78
2023-04-21T12:26:56.183Z,34.78
2023-04-21T12:29:28.793Z,26.40
2023-04-21T12:32:00.263Z,35.17
2023-04-21T12:34:31.969Z,36.22
2023-04-21T12:37:03.689Z,30.88
2023-04-21T12:39:45.777Z,32.75
2023-04-21T12:42:31.864Z,33.08
2023-04-21T12:45:04.461Z,33.55
2023-04-21T12:47:46.759Z,32.75
2023-04-21T12:50:18.802Z,31.05
2023-04-21T12:52:54.738Z,34.80
2023-04-21T12:55:37.632Z,31.80
2023-04-21T12:58:11.969Z,31.38
2023-04-21T13:00:49.251Z,32.35
2023-04-21T13:03:25.612Z,30.83
2023-04-21T13:09:22.191Z,29.08
2023-04-21T13:11:56.613Z,30.13
2023-04-21T13:14:28.480Z,28.53
2023-04-21T13:17:11.141Z,25.55
2023-04-21T13:20:08.708Z,28.63
2023-04-21T13:22:41.375Z,30.10
2023-04-21T13:25:19.309Z,24.42
2023-04-21T13:28:12.919Z,29.40
2023-04-21T13:31:05.948Z,26.53
2023-04-21T13:33:44.936Z,25.17
2023-04-21T13:36:17.945Z,23.58
2023-04-21T13:39:33.861Z,22.35
2023-04-21T13:42:07.868Z,24.48
2023-04-21T13:45:04.826Z,24.13
2023-04-21T13:47:55.944Z,21.33
2023-04-21T13:50:48.578Z,19.42
2023-04-21T13:53:22.854Z,19.58
2023-04-21T13:56:48.152Z,20.77
2023-04-21T13:59:41.364Z,18.85
2023-04-21T14:02:21.941Z,18.58
2023-04-21T14:05:15.283Z,28.83
2023-04-21T14:08:10.418Z,22.25
2023-04-21T14:11:01.845Z,40.00
2023-04-21T14:13:44.667Z,28.95
2023-04-21T14:16:46.431Z,54.78
2023-04-21T14:19:20.604Z,23.63
2023-04-21T14:21:57.120Z,34.95
2023-04-21T14:24:30.773Z,17.35
2023-04-21T14:27:07.348Z,20.10
2023-04-21T14:29:38.890Z,26.00
2023-04-21T14:32:34.200Z,18.92
2023-04-21T14:35:12.845Z,41.05
2023-04-21T14:37:45.203Z,16.65
2023-04-21T14:40:37.890Z,22.50
2023-04-21T14:43:28.996Z,19.83
2023-04-21T14:46:03.984Z,33.85
2023-04-21T14:48:35.855Z,14.57
2023-04-21T14:51:10.870Z,16.10
2023-04-21T14:53:53.231Z,30.15
2023-04-21T14:57:10.590Z,12.57
2023-04-21T14:59:56.596Z,11.85
2023-04-21T15:02:34.466Z,20.92
2023-04-21T15:05:06.437Z,29.23
2023-04-21T15:07:46.195Z,16.02
2023-04-21T15:10:40.606Z,14.45
2023-04-21T15:13:53.867Z,10.73
2023-04-21T15:16:26.886Z,15.52
2023-04-21T15:19:02.680Z,9.95
2023-04-21T15:21:39.958Z,9.00
2023-04-21T15:24:15.560Z,9.02
2023-04-21T15:26:51.211Z,8.55
2023-04-21T15:29:23.214Z,9.18
2023-04-21T15:32:15.362Z,8.77
2023-04-21T15:35:26.074Z,10.23
2023-04-21T15:38:18.532Z,10.38
2023-04-21T15:41:01.290Z,7.18
2023-04-21T15:43:34.677Z,10.27
2023-04-21T15:46:14.584Z,9.07
2023-04-21T15:48:48.033Z,8.55
2023-04-21T15:51:23.608Z,8.80
2023-04-21T15:53:57.868Z,8.38
2023-04-21T15:56:29.650Z,8.70
2023-04-21T15:59:11.903Z,8.35
2023-04-21T16:01:53.479Z,8.40
2023-04-21T16:04:25.841Z,7.40
2023-04-21T16:06:57.805Z,10.13
2023-04-21T16:09:29.871Z,6.95
2023-04-21T16:12:18.109Z,8.45
2023-04-21T16:15:23.785Z,7.07
2023-04-21T16:17:56.671Z,8.55
2023-04-21T16:20:53.875Z,8.88
2023-04-21T16:23:26.904Z,7.00
2023-04-21T16:25:58.620Z,6.40
2023-04-21T16:28:50.694Z,9.02
2023-04-21T16:31:22.809Z,6.47
2023-04-21T16:34:01.094Z,7.50
2023-04-21T16:37:04.018Z,6.65
2023-04-21T16:39:44.677Z,7.00
2023-04-21T16:42:16.838Z,7.70
2023-04-21T16:45:12.294Z,6.97
2023-04-21T16:47:43.675Z,8.98
2023-04-21T16:50:15.050Z,7.65
2023-04-21T16:52:51.569Z,6.65
2023-04-21T16:55:24.112Z,7.53
2023-04-21T16:57:58.755Z,7.05
2023-04-21T17:00:34.226Z,9.48
2023-04-21T17:03:30.802Z,6.82
2023-04-21T17:06:13.692Z,8.10
2023-04-21T17:08:45.544Z,9.80
2023-04-21T17:11:39.954Z,7.30
2023-04-21T17:14:34.043Z,8.07
2023-04-21T17:17:05.377Z,7.68
2023-04-21T17:19:37.238Z,7.95
2023-04-21T17:22:09.621Z,8.23
2023-04-21T17:25:00.887Z,8.30
2023-04-21T17:27:34.031Z,8.98
2023-04-21T17:30:11.059Z,8.45
2023-04-21T17:33:15.569Z,7.88
2023-04-21T17:36:02.177Z,8.77
2023-04-21T17:38:36.126Z,8.32
2023-04-21T17:41:09.167Z,8.43
2023-04-21T17:43:43.356Z,8.70
2023-04-21T17:46:15.497Z,8.18
2023-04-21T17:48:47.319Z,8.77
2023-04-21T17:51:38.937Z,9.65
2023-04-21T17:54:11.369Z,9.27
2023-04-21T17:56:47.831Z,8.47
2023-04-21T17:59:19.168Z,9.32
2023-04-21T18:01:51.626Z,8.60
2023-04-21T18:04:27.834Z,9.02
2023-04-21T18:07:00.554Z,8.32
2023-04-21T18:09:39.108Z,9.38
2023-04-21T18:12:10.416Z,8.98
2023-04-21T18:14:42.362Z,9.75
2023-04-21T18:17:16.016Z,9.25
2023-04-21T18:19:48.947Z,9.02
2023-04-21T18:22:20.515Z,8.95
2023-04-21T18:24:54.988Z,9.35
2023-04-21T18:27:26.533Z,9.43
2023-04-21T18:29:58.161Z,8.98
2023-04-21T18:32:29.562Z,9.57
2023-04-21T18:35:01.323Z,9.80
2023-04-21T18:37:33.782Z,9.38
2023-04-21T18:40:07.089Z,10.05
2023-04-21T18:42:41.026Z,9.90
2023-04-21T18:45:12.701Z,9.85
2023-04-21T18:47:44.378Z,9.95
2023-04-21T18:50:15.884Z,8.73
2023-04-21T18:52:47.503Z,9.02
2023-04-21T18:55:28.975Z,10.70
2023-04-21T18:58:00.403Z,10.32
2023-04-21T19:00:33.295Z,9.10
2023-04-21T19:03:05.880Z,9.75
2023-04-21T19:05:39.150Z,11.20
2023-04-21T19:08:11.683Z,10.52
2023-04-21T19:10:44.303Z,11.70
2023-04-21T19:13:17.519Z,9.82
2023-04-21T19:15:48.960Z,11.07
2023-04-21T19:18:20.659Z,10.57
2023-04-21T19:20:51.853Z,10.77
2023-04-21T19:23:23.861Z,11.00
2023-04-21T19:25:57.983Z,10.85
2023-04-21T19:28:29.518Z,10.65
2023-04-21T19:31:01.076Z,11.88
2023-04-21T19:33:33.243Z,10.73
2023-04-21T19:36:05.676Z,9.65
2023-04-21T19:38:37.786Z,11.05
2023-04-21T19:41:09.290Z,11.20
2023-04-21T19:43:41.762Z,9.48
2023-04-21T19:46:13.093Z,11.13
2023-04-21T19:48:44.567Z,9.52
2023-04-21T19:51:15.894Z,11.38
2023-04-21T19:53:51.400Z,11.27
2023-04-21T19:56:32.648Z,11.48
2023-04-21T19:59:05.029Z,11.70
2023-04-21T20:01:36.838Z,11.40
2023-04-21T20:04:11.873Z,11.27
2023-04-21T20:06:43.847Z,11.13
2023-04-21T20:09:15.257Z,10.18
2023-04-21T20:11:46.775Z,11.20
2023-04-21T20:14:19.819Z,9.93
2023-04-21T20:16:51.306Z,12.53
2023-04-21T20:19:24.360Z,11.90
2023-04-21T20:21:55.798Z,12.23
2023-04-21T20:24:27.203Z,12.38
2023-04-21T20:26:58.485Z,9.98
2023-04-21T20:29:30.101Z,12.32
2023-04-21T20:32:01.667Z,12.00
2023-04-21T20:34:33.006Z,11.63
2023-04-21T20:37:05.847Z,11.70
2023-04-21T20:39:37.635Z,13.82
2023-04-21T20:42:13.614Z,9.68
2023-04-21T20:44:46.747Z,11.35
2023-04-21T20:47:19.281Z,11.07
2023-04-21T20:49:50.758Z,11.73
2023-04-21T20:52:22.581Z,11.40
2023-04-21T20:54:54.020Z,11.50
2023-04-21T20:57:28.533Z,12.38
2023-04-21T20:59:59.995Z,11.55
2023-04-21T21:02:31.344Z,10.68
2023-04-21T21:05:02.743Z,11.40
2023-04-21T21:07:35.589Z,9.85
2023-04-21T21:10:07.361Z,12.70
2023-04-21T21:12:38.662Z,13.63
2023-04-21T21:15:11.691Z,11.98
2023-04-21T21:17:43.227Z,12.93
2023-04-21T21:20:14.824Z,10.70
2023-04-21T21:22:46.034Z,11.73
2023-04-21T21:25:17.566Z,12.50
2023-04-21T21:27:49.228Z,13.23
2023-04-21T21:30:20.911Z,11.48
2023-04-21T21:32:52.710Z,11.88
2023-04-21T21:35:24.057Z,12.65
2023-04-21T21:37:55.432Z,10.90
2023-04-21T21:40:27.107Z,12.38
2023-04-21T21:42:58.575Z,12.48
2023-04-21T21:45:30.393Z,12.63
2023-04-21T21:48:02.163Z,12.02
2023-04-21T21:50:33.411Z,12.85
2023-04-21T21:53:04.843Z,11.45
2023-04-21T21:55:36.235Z,12.43
2023-04-21T21:58:07.743Z,11.77
2023-04-21T22:00:39.620Z,9.90
2023-04-21T22:03:11.359Z,10.55
2023-04-21T22:05:43.067Z,11.00
2023-04-21T22:08:14.661Z,13.25
2023-04-21T22:10:46.688Z,13.50
2023-04-21T22:13:18.222Z,12.15
2023-04-21T22:15:49.562Z,12.07
2023-04-21T22:18:21.042Z,10.25
2023-04-21T22:20:52.557Z,70.72
2023-04-21T22:23:23.939Z,15.70
2023-04-21T22:25:55.393Z,11.95
2023-04-21T22:28:26.676Z,12.73
2023-04-21T22:30:57.922Z,8.90
2023-04-21T22:33:29.155Z,12.50
2023-04-21T22:36:00.750Z,11.43
2023-04-21T22:38:32.388Z,13.38
2023-04-21T22:41:03.715Z,12.52
2023-04-21T22:43:35.584Z,11.48
2023-04-21T22:46:07.953Z,11.82
2023-04-21T22:48:40.092Z,112.70
2023-04-21T22:51:12.017Z,17.77
2023-04-21T22:53:43.610Z,13.05
2023-04-21T22:56:15.962Z,11.27
2023-04-21T22:58:47.393Z,13.43
2023-04-21T23:01:18.849Z,12.93
2023-04-21T23:03:50.524Z,12.82
2023-04-21T23:06:21.982Z,13.60
2023-04-21T23:08:53.472Z,13.73
2023-04-21T23:11:25.061Z,12.50
2023-04-21T23:13:56.624Z,14.10
2023-04-21T23:16:28.406Z,13.88
2023-04-21T23:18:59.830Z,14.65
2023-04-21T23:21:31.073Z,13.55
2023-04-21T23:24:02.426Z,14.25
2023-04-21T23:26:33.826Z,14.10
2023-04-21T23:29:05.366Z,13.95
2023-04-21T23:31:36.805Z,13.60
2023-04-21T23:34:08.683Z,14.40
2023-04-21T23:36:45.440Z,14.35
2023-04-21T23:39:16.994Z,14.77
2023-04-21T23:41:48.492Z,14.35
2023-04-21T23:44:20.076Z,15.50
2023-04-21T23:46:51.507Z,14.18
2023-04-21T23:49:23.569Z,14.45
2023-04-21T23:51:54.761Z,14.48
2023-04-21T23:54:26.278Z,14.68
2023-04-21T23:57:01.505Z,16.25
2023-04-21T23:59:32.831Z,13.68
